Time,TemperatureF,DewpointF,PressureIn,WindDirection,WindDirectionDegrees,WindSpeedMPH,WindSpeedGustMPH,Humidity,HourlyPrecipIn,Conditions,Clouds,dailyrainin,SoftwareType,DateUTC
2013-08-25 00:05:00,62.6,59.0,30.09,NNE,22,0.0,-999.0,88,-99.99,,,0.00,Acu-Link.com,2013-08-25 04:05:00,
2013-08-25 00:21:00,62.6,59.0,30.09,NNE,22,0.0,-999.0,88,-99.99,,,0.00,Acu-Link.com,2013-08-25 04:21:00,
2013-08-25 00:36:00,62.6,59.3,30.10,NNE,22,0.0,-999.0,89,-99.99,,,0.00,Acu-Link.com,2013-08-25 04:36:00,
2013-08-25 00:51:00,62.6,59.3,30.10,NNE,22,0.0,-999.0,89,-99.99,,,0.00,Acu-Link.com,2013-08-25 04:51:00,
2013-08-25 01:06:00,60.8,57.8,30.10,NNE,22,0.0,-999.0,90,-99.99,,,0.00,Acu-Link.com,2013-08-25 05:06:00,
2013-08-25 01:21:00,60.8,57.8,30.10,NNE,22,0.0,-999.0,90,-99.99,,,0.00,Acu-Link.com,2013-08-25 05:21:00,
2013-08-25 01:36:00,60.8,58.2,30.10,NNE,22,0.0,-999.0,91,-99.99,,,0.00,Acu-Link.com,2013-08-25 05:36:00,
2013-08-25 01:51:00,60.8,58.2,30.09,NNE,22,0.0,-999.0,91,-99.99,,,0.00,Acu-Link.com,2013-08-25 05:51:00,
2013-08-25 02:06:00,60.8,58.5,30.09,NNE,22,0.0,-999.0,92,-99.99,,,0.00,Acu-Link.com,2013-08-25 06:06:00,
2013-08-25 02:21:00,60.8,58.8,30.10,NNE,22,0.0,-999.0,93,-99.99,,,0.00,Acu-Link.com,2013-08-25 06:21:00,
2013-08-25 02:36:00,60.8,58.8,30.10,NNE,22,0.0,-999.0,93,-99.99,,,0.00,Acu-Link.com,2013-08-25 06:36:00,
2013-08-25 02:52:00,60.8,59.1,30.09,NNE,22,0.0,-999.0,94,-99.99,,,0.00,Acu-Link.com,2013-08-25 06:52:00,
2013-08-25 03:07:00,60.8,59.1,30.10,NNE,22,0.0,-999.0,94,-99.99,,,0.00,Acu-Link.com,2013-08-25 07:07:00,
2013-08-25 03:22:00,60.8,59.1,30.09,NNE,22,0.0,-999.0,94,-99.99,,,0.00,Acu-Link.com,2013-08-25 07:22:00,
2013-08-25 03:37:00,60.8,59.1,30.09,NNE,22,0.0,-999.0,94,-99.99,,,0.00,Acu-Link.com,2013-08-25 07:37:00,
2013-08-25 03:52:00,59.0,57.3,30.09,NNE,22,0.0,-999.0,94,-99.99,,,0.00,Acu-Link.com,2013-08-25 07:52:00,
2013-08-25 04:07:00,59.0,57.3,30.09,NNE,22,0.0,-999.0,94,-99.99,,,0.00,Acu-Link.com,2013-08-25 08:07:00,
2013-08-25 04:23:00,59.0,57.3,30.09,NNE,22,0.0,-999.0,94,-99.99,,,0.00,Acu-Link.com,2013-08-25 08:23:00,
2013-08-25 04:39:00,59.0,57.3,30.10,NNE,22,0.0,-999.0,94,-99.99,,,0.00,Acu-Link.com,2013-08-25 08:39:00,
2013-08-25 04:54:00,59.0,57.3,30.10,NNE,22,0.0,-999.0,94,-99.99,,,0.00,Acu-Link.com,2013-08-25 08:54:00,
2013-08-25 05:09:00,59.0,57.6,30.10,North,0,0.0,-999.0,95,-99.99,,,0.00,Acu-Link.com,2013-08-25 09:09:00,
2013-08-25 05:24:00,59.0,57.9,30.10,North,0,0.0,-999.0,96,-99.99,,,0.00,Acu-Link.com,2013-08-25 09:24:00,
2013-08-25 05:39:00,59.0,57.9,30.11,North,0,0.0,-999.0,96,-99.99,,,0.00,Acu-Link.com,2013-08-25 09:39:00,
2013-08-25 05:54:00,59.0,58.1,30.11,NNW,337,0.0,-999.0,97,-99.99,,,0.00,Acu-Link.com,2013-08-25 09:54:00,
2013-08-25 06:09:00,59.0,58.4,30.11,NNW,337,0.0,-999.0,98,-99.99,,,0.00,Acu-Link.com,2013-08-25 10:09:00,
2013-08-25 06:24:00,59.0,58.4,30.12,NNW,337,0.0,-999.0,98,-99.99,,,0.00,Acu-Link.com,2013-08-25 10:24:00,
2013-08-25 06:39:00,59.0,58.4,30.12,NNW,337,0.0,-999.0,98,-99.99,,,0.00,Acu-Link.com,2013-08-25 10:39:00,
2013-08-25 06:54:00,59.0,58.7,30.13,NW,315,0.0,-999.0,99,-99.99,,,0.00,Acu-Link.com,2013-08-25 10:54:00,
2013-08-25 07:09:00,59.0,58.7,30.14,NNW,337,0.0,-999.0,99,-99.99,,,0.00,Acu-Link.com,2013-08-25 11:09:00,
2013-08-25 07:25:00,59.0,58.7,30.15,NNW,337,0.0,-999.0,99,-99.99,,,0.00,Acu-Link.com,2013-08-25 11:25:00,
2013-08-25 07:40:00,60.8,60.5,30.16,ESE,112,1.6,-999.0,99,-99.99,,,0.00,Acu-Link.com,2013-08-25 11:40:00,
2013-08-25 07:55:00,60.8,60.5,30.16,SSE,157,1.6,-999.0,99,-99.99,,,0.00,Acu-Link.com,2013-08-25 11:55:00,
2013-08-25 08:10:00,62.6,62.3,30.17,West,270,4.0,-999.0,99,-99.99,,,0.00,Acu-Link.com,2013-08-25 12:10:00,
2013-08-25 08:25:00,64.4,62.9,30.18,NE,45,1.6,-999.0,95,-99.99,,,0.00,Acu-Link.com,2013-08-25 12:25:00,
2013-08-25 08:41:00,69.8,64.7,30.18,ESE,112,0.0,-999.0,84,-99.99,,,0.00,Acu-Link.com,2013-08-25 12:41:00,
2013-08-25 08:56:00,73.4,63.0,30.18,NNW,337,3.1,-999.0,70,-99.99,,,0.00,Acu-Link.com,2013-08-25 12:56:00,
2013-08-25 09:11:00,77.0,65.2,30.19,West,270,1.6,-999.0,67,-99.99,,,0.00,Acu-Link.com,2013-08-25 13:11:00,
2013-08-25 09:27:00,78.8,64.2,30.18,ESE,112,2.0,-999.0,61,-99.99,,,0.00,Acu-Link.com,2013-08-25 13:27:00,
2013-08-25 09:42:00,77.0,63.0,30.18,NNE,22,2.0,-999.0,62,-99.99,,,0.00,Acu-Link.com,2013-08-25 13:42:00,
2013-08-25 09:57:00,80.6,64.4,30.19,North,0,2.7,-999.0,58,-99.99,,,0.00,Acu-Link.com,2013-08-25 13:57:00,
2013-08-25 10:12:00,80.6,62.9,30.19,North,0,2.0,-999.0,55,-99.99,,,0.00,Acu-Link.com,2013-08-25 14:12:00,
2013-08-25 10:27:00,82.4,63.5,30.19,SSW,202,1.6,-999.0,53,-99.99,,,0.00,Acu-Link.com,2013-08-25 14:27:00,
2013-08-25 10:42:00,86.0,65.7,30.19,NNW,337,1.6,-999.0,51,-99.99,,,0.00,Acu-Link.com,2013-08-25 14:42:00,
2013-08-25 10:57:00,86.0,64.6,30.19,ESE,112,1.6,-999.0,49,-99.99,,,0.00,Acu-Link.com,2013-08-25 14:57:00,
2013-08-25 11:13:00,86.0,63.4,30.19,SSE,157,1.1,-999.0,47,-99.99,,,0.00,Acu-Link.com,2013-08-25 15:13:00,
2013-08-25 11:28:00,87.8,62.5,30.18,West,270,3.1,-999.0,43,-99.99,,,0.00,Acu-Link.com,2013-08-25 15:28:00,
2013-08-25 11:43:00,89.6,64.1,30.17,SE,135,3.1,-999.0,43,-99.99,,,0.00,Acu-Link.com,2013-08-25 15:43:00,
2013-08-25 11:58:00,89.6,63.4,30.18,NNW,337,4.0,-999.0,42,-99.99,,,0.00,Acu-Link.com,2013-08-25 15:58:00,
2013-08-25 12:13:00,89.6,64.8,30.17,SSW,202,2.7,-999.0,44,-99.99,,,0.00,Acu-Link.com,2013-08-25 16:13:00,
2013-08-25 12:28:00,87.8,63.1,30.16,SSW,202,4.7,-999.0,44,-99.99,,,0.00,Acu-Link.com,2013-08-25 16:28:00,
2013-08-25 12:43:00,89.6,63.4,30.15,North,0,1.6,-999.0,42,-99.99,,,0.00,Acu-Link.com,2013-08-25 16:43:00,
2013-08-25 12:58:00,91.4,62.9,30.15,ENE,67,2.0,-999.0,39,-99.99,,,0.00,Acu-Link.com,2013-08-25 16:58:00,
2013-08-25 13:14:00,89.6,63.4,30.14,South,180,3.6,-999.0,42,-99.99,,,0.00,Acu-Link.com,2013-08-25 17:14:00,
2013-08-25 13:29:00,89.6,61.3,30.14,ESE,112,3.6,-999.0,39,-99.99,,,0.00,Acu-Link.com,2013-08-25 17:29:00,
2013-08-25 13:44:00,87.8,63.8,30.14,NW,315,3.1,-999.0,45,-99.99,,,0.00,Acu-Link.com,2013-08-25 17:44:00,
2013-08-25 13:59:00,91.4,62.9,30.14,NW,315,3.1,-999.0,39,-99.99,,,0.00,Acu-Link.com,2013-08-25 17:59:00,
2013-08-25 14:15:00,87.8,59.0,30.13,SSW,202,2.7,-999.0,38,-99.99,,,0.00,Acu-Link.com,2013-08-25 18:15:00,
2013-08-25 14:30:00,89.6,59.1,30.13,South,180,2.7,-999.0,36,-99.99,,,0.00,Acu-Link.com,2013-08-25 18:30:00,
2013-08-25 14:45:00,91.4,59.9,30.12,North,0,4.7,-999.0,35,-99.99,,,0.00,Acu-Link.com,2013-08-25 18:45:00,
2013-08-25 15:00:00,87.8,59.7,30.11,NW,315,3.1,-999.0,39,-99.99,,,0.00,Acu-Link.com,2013-08-25 19:00:00,
2013-08-25 15:15:00,89.6,60.6,30.11,North,0,3.1,-999.0,38,-99.99,,,0.00,Acu-Link.com,2013-08-25 19:15:00,
2013-08-25 15:31:00,87.8,61.8,30.10,NW,315,2.7,-999.0,42,-99.99,,,0.00,Acu-Link.com,2013-08-25 19:31:00,
2013-08-25 15:46:00,87.8,59.7,30.10,SSW,202,2.7,-999.0,39,-99.99,,,0.00,Acu-Link.com,2013-08-25 19:46:00,
2013-08-25 16:01:00,86.0,60.2,30.10,NNE,22,1.6,-999.0,42,-99.99,,,0.00,Acu-Link.com,2013-08-25 20:01:00,
2013-08-25 16:16:00,86.0,60.2,30.09,South,180,3.6,-999.0,42,-99.99,,,0.00,Acu-Link.com,2013-08-25 20:16:00,
2013-08-25 16:31:00,87.8,59.0,30.08,SE,135,4.0,-999.0,38,-99.99,,,0.00,Acu-Link.com,2013-08-25 20:31:00,
2013-08-25 16:46:00,89.6,59.8,30.08,NE,45,2.7,-999.0,37,-99.99,,,0.00,Acu-Link.com,2013-08-25 20:46:00,
2013-08-25 17:01:00,86.0,58.8,30.08,ESE,112,3.1,-999.0,40,-99.99,,,0.00,Acu-Link.com,2013-08-25 21:01:00,
2013-08-25 17:16:00,86.0,60.2,30.08,NW,315,3.6,-999.0,42,-99.99,,,0.00,Acu-Link.com,2013-08-25 21:16:00,
2013-08-25 17:32:00,86.0,60.2,30.09,ESE,112,1.6,-999.0,42,-99.99,,,0.00,Acu-Link.com,2013-08-25 21:32:00,
2013-08-25 17:47:00,82.4,60.1,30.09,North,0,1.1,-999.0,47,-99.99,,,0.00,Acu-Link.com,2013-08-25 21:47:00,
2013-08-25 18:02:00,80.6,59.6,30.09,NNW,337,2.7,-999.0,49,-99.99,,,0.00,Acu-Link.com,2013-08-25 22:02:00,
2013-08-25 18:18:00,78.8,59.7,30.09,West,270,0.0,-999.0,52,-99.99,,,0.00,Acu-Link.com,2013-08-25 22:18:00,
2013-08-25 18:33:00,77.0,59.6,30.09,NW,315,3.6,-999.0,55,-99.99,,,0.00,Acu-Link.com,2013-08-25 22:33:00,
2013-08-25 18:48:00,77.0,61.6,30.09,ENE,67,0.0,-999.0,59,-99.99,,,0.00,Acu-Link.com,2013-08-25 22:48:00,
2013-08-25 19:04:00,73.4,60.5,30.09,NNE,22,0.0,-999.0,64,-99.99,,,0.00,Acu-Link.com,2013-08-25 23:04:00,
2013-08-25 19:19:00,73.4,61.8,30.08,NNE,22,1.1,-999.0,67,-99.99,,,0.00,Acu-Link.com,2013-08-25 23:19:00,
2013-08-25 19:34:00,71.6,60.9,30.08,NNE,22,0.0,-999.0,69,-99.99,,,0.00,Acu-Link.com,2013-08-25 23:34:00,
2013-08-25 19:49:00,69.8,60.0,30.09,NNE,22,0.0,-999.0,71,-99.99,,,0.00,Acu-Link.com,2013-08-25 23:49:00,
2013-08-25 20:04:00,69.8,61.1,30.08,NNE,22,0.0,-999.0,74,-99.99,,,0.00,Acu-Link.com,2013-08-26 00:04:00,
2013-08-25 20:19:00,68.0,60.9,30.09,NNE,22,0.0,-999.0,78,-99.99,,,0.00,Acu-Link.com,2013-08-26 00:19:00,
2013-08-25 20:35:00,68.0,61.2,30.09,NNE,22,0.0,-999.0,79,-99.99,,,0.00,Acu-Link.com,2013-08-26 00:35:00,
2013-08-25 20:50:00,66.2,60.2,30.09,NNE,22,0.0,-999.0,81,-99.99,,,0.00,Acu-Link.com,2013-08-26 00:50:00,
2013-08-25 21:05:00,64.4,58.8,30.09,NNE,22,0.0,-999.0,82,-99.99,,,0.00,Acu-Link.com,2013-08-26 01:05:00,
2013-08-25 21:20:00,64.4,59.5,30.09,NNE,22,0.0,-999.0,84,-99.99,,,0.00,Acu-Link.com,2013-08-26 01:20:00,
2013-08-25 21:35:00,64.4,59.8,30.10,NNE,22,0.0,-999.0,85,-99.99,,,0.00,Acu-Link.com,2013-08-26 01:35:00,
2013-08-25 21:50:00,62.6,58.3,30.10,NNE,22,0.0,-999.0,86,-99.99,,,0.00,Acu-Link.com,2013-08-26 01:50:00,
2013-08-25 22:05:00,62.6,58.7,30.11,NNE,22,0.0,-999.0,87,-99.99,,,0.00,Acu-Link.com,2013-08-26 02:05:00,
2013-08-25 22:21:00,62.6,59.0,30.11,NNE,22,0.0,-999.0,88,-99.99,,,0.00,Acu-Link.com,2013-08-26 02:21:00,
2013-08-25 22:36:00,62.6,59.0,30.11,NNE,22,0.0,-999.0,88,-99.99,,,0.00,Acu-Link.com,2013-08-26 02:36:00,
2013-08-25 22:51:00,62.6,59.3,30.12,NNE,22,0.0,-999.0,89,-99.99,,,0.00,Acu-Link.com,2013-08-26 02:51:00,
2013-08-25 23:06:00,62.6,59.3,30.12,NNE,22,0.0,-999.0,89,-99.99,,,0.00,Acu-Link.com,2013-08-26 03:06:00,
2013-08-25 23:21:00,60.8,57.5,30.12,NNE,22,0.0,-999.0,89,-99.99,,,0.00,Acu-Link.com,2013-08-26 03:21:00,
2013-08-25 23:37:00,60.8,57.5,30.12,NNE,22,0.0,-999.0,89,-99.99,,,0.00,Acu-Link.com,2013-08-26 03:37:00,
2013-08-25 23:52:00,60.8,58.2,30.12,NNE,22,0.0,-999.0,91,-99.99,,,0.00,Acu-Link.com,2013-08-26 03:52:00,